Terminal Aerodrome Forecast
Issued by NWS Lubbock, TX

Home | Current Version | Previous Version | Text Only | Print | Product List | Glossary On
Versions: 1 2 3 4 5 6 7 8 9 10 11 12 13 14
187
FTUS44 KLUB 191726
TAFLBB
TAF
KLBB 191726Z 1918/2018 21011KT P6SM SCT120 BKN200
      TEMPO 1921/1924 -RA BKN090=

USA.gov is the U.S. government's official web portal to all federal, state and local government web resources and services.